BER144 LESO-LEBL
Flight info
| Callsign | BER144 |
|---|---|
| Flight time | 0h 47m |
| Altitude | 28000 |
| Route | PPN M601 RONNY/N0417F300 M601 GRAUS |
| Aircraft | A320/M-SDE3FGHIRWY/LB1 |
Departure
| Time | 2026-04-14 15:47 |
|---|---|
| Airport | San Sebastián Airport (LESO) |
Arrival
| Time | 2026-04-14 16:34 |
|---|---|
| Airport | Josep Tarradellas Barcelona-El Prat Airport (LEBL) |
| Time | Latitude | Longitude | Altitude | Speed | Heading |
|---|---|---|---|---|---|
| 2026-04-14 15:28 | 43.35636 | -1.79230 | 25 ft | 0 kts | 219° |
| 2026-04-14 15:41 | 43.35635 | -1.79230 | 9 ft | 0 kts | 219° |
| 2026-04-14 15:41 | 43.35635 | -1.79231 | 8 ft | 0 kts | 219° |
| 2026-04-14 15:42 | 43.35631 | -1.79236 | 5 ft | 3 kts | 219° |
| 2026-04-14 15:42 | 43.35611 | -1.79259 | 27 ft | 3 kts | 220° |
| 2026-04-14 15:42 | 43.35594 | -1.79277 | 25 ft | 3 kts | 220° |
| 2026-04-14 15:42 | 43.35581 | -1.79286 | 25 ft | 2 kts | 194° |
| 2026-04-14 15:43 | 43.35567 | -1.79286 | 27 ft | 2 kts | 176° |
| 2026-04-14 15:43 | 43.35549 | -1.79282 | 24 ft | 3 kts | 169° |
| 2026-04-14 15:43 | 43.35525 | -1.79258 | 23 ft | 6 kts | 132° |
| 2026-04-14 15:43 | 43.35516 | -1.79211 | 22 ft | 5 kts | 57° |
| 2026-04-14 15:44 | 43.35560 | -1.79161 | 22 ft | 12 kts | 38° |
| 2026-04-14 15:44 | 43.35642 | -1.79072 | 23 ft | 18 kts | 38° |
| 2026-04-14 15:44 | 43.35760 | -1.78942 | 23 ft | 24 kts | 39° |
| 2026-04-14 15:44 | 43.35894 | -1.78797 | 25 ft | 26 kts | 38° |
| 2026-04-14 15:45 | 43.36036 | -1.78642 | 29 ft | 27 kts | 38° |
| 2026-04-14 15:45 | 43.36172 | -1.78492 | 26 ft | 19 kts | 38° |
| 2026-04-14 15:45 | 43.36215 | -1.78382 | 26 ft | 11 kts | 54° |
| 2026-04-14 15:45 | 43.36248 | -1.78402 | 26 ft | 4 kts | 250° |
| 2026-04-14 15:46 | 43.36224 | -1.78431 | 26 ft | 3 kts | 219° |
| 2026-04-14 15:46 | 43.36199 | -1.78459 | 26 ft | 29 kts | 219° |
| 2026-04-14 15:46 | 43.35813 | -1.78878 | 25 ft | 107 kts | 218° |
| 2026-04-14 15:47 | 43.35088 | -1.79675 | 158 ft | 148 kts | 222° |
| 2026-04-14 15:47 | 43.34325 | -1.80589 | 977 ft | 144 kts | 226° |
| 2026-04-14 15:47 | 43.33639 | -1.81611 | 1779 ft | 148 kts | 232° |
| 2026-04-14 15:47 | 43.32912 | -1.82749 | 2294 ft | 170 kts | 231° |
| 2026-04-14 15:48 | 43.32082 | -1.84046 | 2770 ft | 192 kts | 231° |
| 2026-04-14 15:48 | 43.31147 | -1.85499 | 3185 ft | 215 kts | 231° |
| 2026-04-14 15:48 | 43.30093 | -1.87134 | 3638 ft | 241 kts | 231° |
| 2026-04-14 15:48 | 43.28929 | -1.88932 | 4260 ft | 260 kts | 231° |
| 2026-04-14 15:49 | 43.27705 | -1.90812 | 5191 ft | 267 kts | 231° |
| 2026-04-14 15:49 | 43.26454 | -1.92729 | 6152 ft | 272 kts | 231° |
| 2026-04-14 15:49 | 43.25177 | -1.94687 | 7068 ft | 278 kts | 232° |
| 2026-04-14 15:49 | 43.23837 | -1.96626 | 8012 ft | 285 kts | 223° |
| 2026-04-14 15:50 | 43.22025 | -1.97838 | 8916 ft | 299 kts | 193° |
| 2026-04-14 15:50 | 43.19929 | -1.97696 | 9833 ft | 310 kts | 162° |
| 2026-04-14 15:50 | 43.18112 | -1.96122 | 10652 ft | 313 kts | 129° |
| 2026-04-14 15:50 | 43.17025 | -1.93536 | 11209 ft | 324 kts | 107° |
| 2026-04-14 15:51 | 43.16152 | -1.90579 | 11564 ft | 346 kts | 115° |
| 2026-04-14 15:51 | 43.14675 | -1.87901 | 12275 ft | 360 kts | 135° |
| 2026-04-14 15:51 | 43.12636 | -1.85853 | 13090 ft | 366 kts | 144° |
| 2026-04-14 15:51 | 43.10487 | -1.83952 | 13930 ft | 371 kts | 146° |
| 2026-04-14 15:52 | 43.08294 | -1.82086 | 14644 ft | 375 kts | 146° |
| 2026-04-14 15:52 | 43.06045 | -1.80201 | 15375 ft | 379 kts | 147° |
| 2026-04-14 15:52 | 43.03796 | -1.78325 | 16067 ft | 382 kts | 148° |
| 2026-04-14 15:52 | 43.01366 | -1.76757 | 16758 ft | 388 kts | 159° |
| 2026-04-14 15:53 | 42.98742 | -1.75804 | 17451 ft | 393 kts | 170° |
| 2026-04-14 15:53 | 42.96025 | -1.75207 | 18166 ft | 397 kts | 170° |
| 2026-04-14 15:53 | 42.93291 | -1.74604 | 18807 ft | 400 kts | 170° |
| 2026-04-14 15:53 | 42.90526 | -1.73992 | 19386 ft | 404 kts | 170° |
| 2026-04-14 15:54 | 42.84912 | -1.72754 | 20533 ft | 413 kts | 170° |
| 2026-04-14 15:54 | 42.82059 | -1.72122 | 21124 ft | 417 kts | 170° |
| 2026-04-14 15:54 | 42.79203 | -1.71322 | 21697 ft | 421 kts | 162° |
| 2026-04-14 15:55 | 42.76488 | -1.69822 | 22246 ft | 423 kts | 150° |
| 2026-04-14 15:55 | 42.74031 | -1.67607 | 22830 ft | 424 kts | 137° |
| 2026-04-14 15:55 | 42.71969 | -1.64813 | 23398 ft | 424 kts | 125° |
| 2026-04-14 15:55 | 42.70319 | -1.61446 | 23928 ft | 422 kts | 113° |
| 2026-04-14 15:56 | 42.69056 | -1.57843 | 24407 ft | 424 kts | 110° |
| 2026-04-14 15:56 | 42.67786 | -1.54193 | 24876 ft | 428 kts | 110° |
| 2026-04-14 15:56 | 42.66519 | -1.50589 | 25326 ft | 431 kts | 111° |
| 2026-04-14 15:56 | 42.65198 | -1.46859 | 25805 ft | 434 kts | 110° |
| 2026-04-14 15:57 | 42.63878 | -1.43145 | 26228 ft | 438 kts | 110° |
| 2026-04-14 15:57 | 42.62568 | -1.39463 | 26637 ft | 441 kts | 110° |
| 2026-04-14 15:57 | 42.61230 | -1.35703 | 27038 ft | 444 kts | 110° |
| 2026-04-14 15:57 | 42.59866 | -1.31866 | 27447 ft | 447 kts | 110° |
| 2026-04-14 15:58 | 42.58535 | -1.28114 | 27831 ft | 450 kts | 110° |
| 2026-04-14 15:58 | 42.57154 | -1.24210 | 28094 ft | 453 kts | 110° |
| 2026-04-14 15:58 | 42.55819 | -1.20455 | 28142 ft | 440 kts | 110° |
| 2026-04-14 15:59 | 42.53197 | -1.13152 | 28130 ft | 428 kts | 110° |
| 2026-04-14 15:59 | 42.50596 | -1.05889 | 28112 ft | 427 kts | 110° |
| 2026-04-14 16:00 | 42.48008 | -0.98652 | 28112 ft | 427 kts | 109° |
| 2026-04-14 16:00 | 42.45410 | -0.91406 | 28110 ft | 427 kts | 110° |
| 2026-04-14 16:01 | 42.42804 | -0.84178 | 28103 ft | 427 kts | 110° |
| 2026-04-14 16:01 | 42.40199 | -0.76963 | 28092 ft | 427 kts | 109° |
| 2026-04-14 16:02 | 42.37586 | -0.69755 | 28074 ft | 427 kts | 109° |
| 2026-04-14 16:02 | 42.34955 | -0.62503 | 28078 ft | 427 kts | 109° |
| 2026-04-14 16:03 | 42.32362 | -0.55356 | 28077 ft | 426 kts | 109° |
| 2026-04-14 16:03 | 42.29750 | -0.48172 | 28074 ft | 426 kts | 109° |
| 2026-04-14 16:04 | 42.27121 | -0.41003 | 28074 ft | 426 kts | 109° |
| 2026-04-14 16:04 | 42.24486 | -0.33854 | 28060 ft | 425 kts | 109° |
| 2026-04-14 16:05 | 42.21855 | -0.26704 | 28066 ft | 425 kts | 109° |
| 2026-04-14 16:05 | 42.19652 | -0.20718 | 28065 ft | 425 kts | 109° |
| 2026-04-14 16:06 | 42.17027 | -0.13602 | 28068 ft | 425 kts | 109° |
| 2026-04-14 16:06 | 42.14401 | -0.06508 | 28062 ft | 425 kts | 109° |
| 2026-04-14 16:07 | 42.11740 | 0.00660 | 28067 ft | 425 kts | 109° |
| 2026-04-14 16:07 | 42.09113 | 0.07717 | 28057 ft | 424 kts | 109° |
| 2026-04-14 16:08 | 42.06462 | 0.14817 | 28063 ft | 424 kts | 109° |
| 2026-04-14 16:08 | 42.03816 | 0.21903 | 28057 ft | 424 kts | 109° |
| 2026-04-14 16:09 | 42.01163 | 0.28988 | 28051 ft | 423 kts | 109° |
| 2026-04-14 16:09 | 41.98507 | 0.36029 | 28053 ft | 423 kts | 108° |
| 2026-04-14 16:10 | 41.96414 | 0.43460 | 28051 ft | 435 kts | 101° |
| 2026-04-14 16:10 | 41.94437 | 0.51224 | 28053 ft | 441 kts | 101° |
| 2026-04-14 16:11 | 41.92462 | 0.58847 | 27649 ft | 418 kts | 101° |
| 2026-04-14 16:11 | 41.91512 | 0.62482 | 26829 ft | 409 kts | 101° |
| 2026-04-14 16:11 | 41.90582 | 0.66056 | 25976 ft | 402 kts | 101° |
| 2026-04-14 16:11 | 41.89669 | 0.69571 | 25160 ft | 395 kts | 102° |
| 2026-04-14 16:12 | 41.88778 | 0.73011 | 24356 ft | 389 kts | 102° |
| 2026-04-14 16:12 | 41.87890 | 0.76458 | 23923 ft | 386 kts | 102° |
| 2026-04-14 16:12 | 41.87018 | 0.79834 | 23554 ft | 380 kts | 102° |
| 2026-04-14 16:12 | 41.86155 | 0.83169 | 23170 ft | 376 kts | 102° |
| 2026-04-14 16:13 | 41.85304 | 0.86446 | 22838 ft | 374 kts | 103° |
| 2026-04-14 16:13 | 41.84444 | 0.89745 | 22477 ft | 372 kts | 103° |
| 2026-04-14 16:13 | 41.83594 | 0.92989 | 22156 ft | 370 kts | 103° |
| 2026-04-14 16:13 | 41.82738 | 0.96254 | 21813 ft | 368 kts | 104° |
| 2026-04-14 16:14 | 41.81890 | 0.99483 | 21473 ft | 367 kts | 104° |
| 2026-04-14 16:14 | 41.81044 | 1.02702 | 21136 ft | 365 kts | 104° |
| 2026-04-14 16:14 | 41.80208 | 1.05884 | 20795 ft | 363 kts | 104° |
| 2026-04-14 16:14 | 41.79363 | 1.09090 | 20468 ft | 362 kts | 105° |
| 2026-04-14 16:15 | 41.78528 | 1.12258 | 20131 ft | 360 kts | 105° |
| 2026-04-14 16:15 | 41.77699 | 1.15416 | 19725 ft | 359 kts | 105° |
| 2026-04-14 16:15 | 41.76871 | 1.18565 | 19305 ft | 357 kts | 105° |
| 2026-04-14 16:15 | 41.76044 | 1.21692 | 18895 ft | 355 kts | 106° |
| 2026-04-14 16:16 | 41.75220 | 1.24801 | 18481 ft | 354 kts | 107° |
| 2026-04-14 16:16 | 41.74403 | 1.27889 | 18025 ft | 352 kts | 107° |
| 2026-04-14 16:16 | 41.73588 | 1.30974 | 17623 ft | 349 kts | 107° |
| 2026-04-14 16:16 | 41.72778 | 1.34030 | 17207 ft | 347 kts | 107° |
| 2026-04-14 16:17 | 41.71969 | 1.37066 | 16801 ft | 345 kts | 107° |
| 2026-04-14 16:17 | 41.71166 | 1.40070 | 16389 ft | 343 kts | 107° |
| 2026-04-14 16:17 | 41.70362 | 1.43078 | 15993 ft | 341 kts | 107° |
| 2026-04-14 16:17 | 41.69566 | 1.46059 | 15595 ft | 339 kts | 107° |
| 2026-04-14 16:18 | 41.68775 | 1.49025 | 15194 ft | 338 kts | 107° |
| 2026-04-14 16:18 | 41.67986 | 1.51979 | 14801 ft | 336 kts | 107° |
| 2026-04-14 16:18 | 41.67203 | 1.54899 | 14409 ft | 335 kts | 107° |
| 2026-04-14 16:18 | 41.66411 | 1.57846 | 14021 ft | 334 kts | 107° |
| 2026-04-14 16:19 | 41.65627 | 1.60768 | 13605 ft | 333 kts | 107° |
| 2026-04-14 16:19 | 41.64853 | 1.63657 | 13203 ft | 330 kts | 107° |
| 2026-04-14 16:19 | 41.64081 | 1.66536 | 12829 ft | 327 kts | 107° |
| 2026-04-14 16:19 | 41.63315 | 1.69372 | 12461 ft | 324 kts | 107° |
| 2026-04-14 16:20 | 41.62550 | 1.72207 | 12082 ft | 322 kts | 106° |
| 2026-04-14 16:20 | 41.61791 | 1.75008 | 11715 ft | 320 kts | 106° |
| 2026-04-14 16:20 | 41.61036 | 1.77789 | 11344 ft | 317 kts | 106° |
| 2026-04-14 16:20 | 41.60290 | 1.80545 | 10983 ft | 315 kts | 106° |
| 2026-04-14 16:21 | 41.59544 | 1.83292 | 10627 ft | 313 kts | 105° |
| 2026-04-14 16:21 | 41.58808 | 1.86010 | 10271 ft | 310 kts | 105° |
| 2026-04-14 16:21 | 41.58082 | 1.88679 | 10036 ft | 300 kts | 105° |
| 2026-04-14 16:21 | 41.57376 | 1.91271 | 9765 ft | 295 kts | 105° |
| 2026-04-14 16:22 | 41.56676 | 1.93836 | 9635 ft | 293 kts | 105° |
| 2026-04-14 16:22 | 41.55978 | 1.96389 | 9503 ft | 293 kts | 105° |
| 2026-04-14 16:22 | 41.55282 | 1.98941 | 9372 ft | 292 kts | 106° |
| 2026-04-14 16:22 | 41.54585 | 2.01484 | 9216 ft | 291 kts | 106° |
| 2026-04-14 16:23 | 41.53891 | 2.04017 | 8943 ft | 290 kts | 106° |
| 2026-04-14 16:23 | 41.53199 | 2.06538 | 8679 ft | 287 kts | 106° |
| 2026-04-14 16:23 | 41.52534 | 2.08969 | 8424 ft | 280 kts | 105° |
| 2026-04-14 16:23 | 41.51925 | 2.11443 | 8170 ft | 273 kts | 108° |
| 2026-04-14 16:24 | 41.51168 | 2.13722 | 8020 ft | 264 kts | 113° |
| 2026-04-14 16:24 | 41.50349 | 2.15864 | 7896 ft | 254 kts | 114° |
| 2026-04-14 16:24 | 41.49542 | 2.17906 | 7770 ft | 245 kts | 115° |
| 2026-04-14 16:24 | 41.48764 | 2.19886 | 7645 ft | 236 kts | 114° |
| 2026-04-14 16:25 | 41.48026 | 2.21801 | 7519 ft | 228 kts | 114° |
| 2026-04-14 16:25 | 41.47323 | 2.23652 | 7393 ft | 220 kts | 114° |
| 2026-04-14 16:25 | 41.46651 | 2.25447 | 7249 ft | 214 kts | 114° |
| 2026-04-14 16:25 | 41.46005 | 2.27223 | 7041 ft | 211 kts | 109° |
| 2026-04-14 16:26 | 41.45599 | 2.29082 | 6783 ft | 208 kts | 95° |
| 2026-04-14 16:26 | 41.45513 | 2.30992 | 6523 ft | 205 kts | 83° |
| 2026-04-14 16:26 | 41.45733 | 2.32856 | 6256 ft | 202 kts | 70° |
| 2026-04-14 16:26 | 41.46228 | 2.34588 | 5991 ft | 199 kts | 61° |
| 2026-04-14 16:27 | 41.46790 | 2.36241 | 5735 ft | 199 kts | 65° |
| 2026-04-14 16:27 | 41.46986 | 2.38103 | 5468 ft | 204 kts | 97° |
| 2026-04-14 16:27 | 41.46406 | 2.39815 | 5196 ft | 206 kts | 132° |
| 2026-04-14 16:27 | 41.45234 | 2.40824 | 4930 ft | 205 kts | 167° |
| 2026-04-14 16:28 | 41.43839 | 2.40835 | 4664 ft | 200 kts | 200° |
| 2026-04-14 16:28 | 41.42688 | 2.39897 | 4391 ft | 193 kts | 231° |
| 2026-04-14 16:28 | 41.41840 | 2.38525 | 4128 ft | 192 kts | 234° |
| 2026-04-14 16:28 | 41.40995 | 2.37157 | 4009 ft | 192 kts | 233° |
| 2026-04-14 16:29 | 41.40146 | 2.35790 | 4004 ft | 192 kts | 233° |
| 2026-04-14 16:29 | 41.39299 | 2.34423 | 4005 ft | 191 kts | 234° |
| 2026-04-14 16:29 | 41.38466 | 2.33046 | 3949 ft | 192 kts | 239° |
| 2026-04-14 16:29 | 41.37798 | 2.31486 | 3620 ft | 194 kts | 245° |
| 2026-04-14 16:30 | 41.37223 | 2.29878 | 3311 ft | 191 kts | 246° |
| 2026-04-14 16:30 | 41.36674 | 2.28281 | 3029 ft | 187 kts | 246° |
| 2026-04-14 16:30 | 41.36148 | 2.26735 | 2786 ft | 181 kts | 245° |
| 2026-04-14 16:30 | 41.35638 | 2.25235 | 2546 ft | 175 kts | 244° |
| 2026-04-14 16:31 | 41.35143 | 2.23781 | 2318 ft | 169 kts | 245° |
| 2026-04-14 16:31 | 41.34677 | 2.22408 | 2088 ft | 157 kts | 243° |
| 2026-04-14 16:31 | 41.34247 | 2.21145 | 1910 ft | 143 kts | 244° |
| 2026-04-14 16:31 | 41.33849 | 2.19976 | 1710 ft | 135 kts | 243° |
| 2026-04-14 16:32 | 41.33464 | 2.18847 | 1521 ft | 132 kts | 243° |
| 2026-04-14 16:32 | 41.33084 | 2.17733 | 1333 ft | 132 kts | 243° |
| 2026-04-14 16:32 | 41.32710 | 2.16638 | 1140 ft | 130 kts | 242° |
| 2026-04-14 16:32 | 41.32337 | 2.15545 | 930 ft | 129 kts | 244° |
| 2026-04-14 16:33 | 41.31973 | 2.14472 | 794 ft | 126 kts | 242° |
| 2026-04-14 16:33 | 41.31602 | 2.13383 | 586 ft | 129 kts | 241° |
| 2026-04-14 16:33 | 41.31232 | 2.12327 | 388 ft | 125 kts | 242° |
| 2026-04-14 16:33 | 41.30875 | 2.11259 | 197 ft | 126 kts | 244° |
| 2026-04-14 16:34 | 41.30515 | 2.10207 | 49 ft | 124 kts | 242° |
| 2026-04-14 16:34 | 41.30185 | 2.09267 | 15 ft | 92 kts | 246° |
| 2026-04-14 16:34 | 41.29993 | 2.08680 | 23 ft | 52 kts | 247° |
| 2026-04-14 16:34 | 41.29925 | 2.08346 | 23 ft | 31 kts | 268° |
| 2026-04-14 16:35 | 41.29938 | 2.08136 | 20 ft | 0 kts | 277° |
| 2026-04-14 16:35 | 41.29938 | 2.08132 | 19 ft | 0 kts | 277° |
| 2026-04-14 16:35 | 41.29939 | 2.08126 | 19 ft | 3 kts | 276° |
| 2026-04-14 16:36 | 41.29945 | 2.08071 | 19 ft | 8 kts | 285° |
| 2026-04-14 16:36 | 41.29974 | 2.08031 | 19 ft | 5 kts | 333° |
| 2026-04-14 16:36 | 41.30009 | 2.08010 | 18 ft | 6 kts | 335° |
| 2026-04-14 16:36 | 41.30050 | 2.07984 | 17 ft | 7 kts | 335° |
| 2026-04-14 16:37 | 41.30101 | 2.07950 | 17 ft | 8 kts | 326° |
| 2026-04-14 16:37 | 41.30145 | 2.07896 | 14 ft | 9 kts | 336° |
| 2026-04-14 16:37 | 41.30201 | 2.07903 | 16 ft | 8 kts | 22° |
| 2026-04-14 16:37 | 41.30238 | 2.07924 | 15 ft | 2 kts | 24° |
| 2026-04-14 16:38 | 41.30245 | 2.07928 | 16 ft | 0 kts | 24° |